sensor_id;sensor_type;location;lat;lon;timestamp;P1;durP1;ratioP1;P2;durP2;ratioP2
70970;SDS011;58632;51.718;19.446;2022-12-07T12:33:32;15.30;;;10.40;;
70970;SDS011;58632;51.718;19.446;2022-12-07T12:51:56;14.00;;;8.50;;
70970;SDS011;58632;51.718;19.446;2022-12-07T13:01:49;11.60;;;8.50;;
70970;SDS011;58632;51.718;19.446;2022-12-07T13:04:18;13.00;;;8.30;;
70970;SDS011;58632;51.718;19.446;2022-12-07T13:06:56;17.60;;;11.00;;
70970;SDS011;58632;51.718;19.446;2022-12-07T13:09:28;15.40;;;10.30;;
70970;SDS011;58632;51.718;19.446;2022-12-07T13:11:59;15.60;;;10.90;;
70970;SDS011;58632;51.718;19.446;2022-12-07T13:17:02;18.40;;;11.60;;
70970;SDS011;58632;51.718;19.446;2022-12-07T13:25:41;15.50;;;10.50;;
70970;SDS011;58632;51.718;19.446;2022-12-07T13:27:48;16.50;;;11.70;;
70970;SDS011;58632;51.718;19.446;2022-12-07T13:30:21;19.90;;;12.80;;
70970;SDS011;58632;51.718;19.446;2022-12-07T13:32:51;17.90;;;12.40;;
70970;SDS011;58632;51.718;19.446;2022-12-07T13:35:29;17.10;;;10.90;;
70970;SDS011;58632;51.718;19.446;2022-12-07T13:37:58;21.00;;;13.00;;
70970;SDS011;58632;51.718;19.446;2022-12-07T13:40:25;23.10;;;13.90;;
70970;SDS011;58632;51.718;19.446;2022-12-07T13:43:01;20.40;;;13.20;;
70970;SDS011;58632;51.718;19.446;2022-12-07T13:45:31;20.50;;;13.20;;
70970;SDS011;58632;51.718;19.446;2022-12-07T13:48:14;20.60;;;13.30;;
70970;SDS011;58632;51.718;19.446;2022-12-07T13:50:51;19.20;;;12.50;;
70970;SDS011;58632;51.718;19.446;2022-12-07T13:53:19;19.40;;;13.20;;
70970;SDS011;58632;51.718;19.446;2022-12-07T13:55:45;21.50;;;14.00;;
70970;SDS011;58632;51.718;19.446;2022-12-07T13:58:12;19.10;;;12.20;;
70970;SDS011;58632;51.718;19.446;2022-12-07T14:00:39;20.40;;;13.50;;
70970;SDS011;58632;51.718;19.446;2022-12-07T14:05:38;17.40;;;12.00;;
70970;SDS011;58632;51.718;19.446;2022-12-07T14:08:06;20.20;;;13.30;;
70970;SDS011;58632;51.718;19.446;2022-12-07T14:13:30;18.20;;;10.80;;
70970;SDS011;58632;51.718;19.446;2022-12-07T14:15:59;19.70;;;11.80;;
70970;SDS011;58632;51.718;19.446;2022-12-07T14:18:28;19.70;;;13.30;;
70970;SDS011;58632;51.718;19.446;2022-12-07T14:21:03;16.00;;;9.70;;
70970;SDS011;58632;51.718;19.446;2022-12-07T14:23:31;17.70;;;11.20;;
70970;SDS011;58632;51.718;19.446;2022-12-07T14:26:06;16.80;;;11.00;;
70970;SDS011;58632;51.718;19.446;2022-12-07T14:28:34;17.20;;;11.70;;
70970;SDS011;58632;51.718;19.446;2022-12-07T14:31:02;16.20;;;11.80;;
70970;SDS011;58632;51.718;19.446;2022-12-07T14:33:28;16.10;;;11.50;;
70970;SDS011;58632;51.718;19.446;2022-12-07T14:35:54;16.40;;;11.30;;
70970;SDS011;58632;51.718;19.446;2022-12-07T14:38:23;18.70;;;11.00;;
70970;SDS011;58632;51.718;19.446;2022-12-07T14:40:50;14.80;;;10.40;;
70970;SDS011;58632;51.718;19.446;2022-12-07T14:43:17;18.20;;;11.10;;
70970;SDS011;58632;51.718;19.446;2022-12-07T14:45:43;14.50;;;10.20;;
70970;SDS011;58632;51.718;19.446;2022-12-07T14:48:13;16.10;;;12.00;;
70970;SDS011;58632;51.718;19.446;2022-12-07T14:50:41;14.50;;;10.70;;
70970;SDS011;58632;51.718;19.446;2022-12-07T14:53:11;13.90;;;10.00;;
70970;SDS011;58632;51.718;19.446;2022-12-07T14:55:39;13.60;;;9.60;;
70970;SDS011;58632;51.718;19.446;2022-12-07T14:58:05;15.90;;;11.00;;
70970;SDS011;58632;51.718;19.446;2022-12-07T15:00:31;16.70;;;10.10;;
70970;SDS011;58632;51.718;19.446;2022-12-07T15:02:59;16.00;;;10.40;;
70970;SDS011;58632;51.718;19.446;2022-12-07T15:05:25;16.70;;;10.10;;
70970;SDS011;58632;51.718;19.446;2022-12-07T15:07:51;15.40;;;10.40;;
70970;SDS011;58632;51.718;19.446;2022-12-07T15:10:18;14.50;;;9.80;;
70970;SDS011;58632;51.718;19.446;2022-12-07T15:12:46;17.40;;;11.20;;
70970;SDS011;58632;51.718;19.446;2022-12-07T15:15:12;16.40;;;11.60;;
70970;SDS011;58632;51.718;19.446;2022-12-07T15:17:38;20.70;;;11.70;;
70970;SDS011;58632;51.718;19.446;2022-12-07T15:20:04;16.70;;;10.50;;
70970;SDS011;58632;51.718;19.446;2022-12-07T15:22:31;17.20;;;10.50;;
70970;SDS011;58632;51.718;19.446;2022-12-07T15:24:57;22.20;;;11.00;;
70970;SDS011;58632;51.718;19.446;2022-12-07T15:27:23;17.30;;;10.60;;
70970;SDS011;58632;51.718;19.446;2022-12-07T15:29:49;22.10;;;13.70;;
70970;SDS011;58632;51.718;19.446;2022-12-07T15:32:15;19.10;;;11.80;;
70970;SDS011;58632;51.718;19.446;2022-12-07T15:34:41;18.60;;;12.30;;
70970;SDS011;58632;51.718;19.446;2022-12-07T15:37:07;17.90;;;11.60;;
70970;SDS011;58632;51.718;19.446;2022-12-07T15:39:33;18.00;;;10.80;;
70970;SDS011;58632;51.718;19.446;2022-12-07T15:41:59;16.00;;;10.90;;
70970;SDS011;58632;51.718;19.446;2022-12-07T15:44:25;18.00;;;10.60;;
70970;SDS011;58632;51.718;19.446;2022-12-07T15:47:09;15.40;;;10.00;;
70970;SDS011;58632;51.718;19.446;2022-12-07T15:49:35;16.90;;;10.60;;
70970;SDS011;58632;51.718;19.446;2022-12-07T15:52:02;15.40;;;9.70;;
70970;SDS011;58632;51.718;19.446;2022-12-07T15:54:28;15.90;;;10.40;;
70970;SDS011;58632;51.718;19.446;2022-12-07T15:56:54;17.50;;;10.30;;
70970;SDS011;58632;51.718;19.446;2022-12-07T15:59:21;17.20;;;10.20;;
70970;SDS011;58632;51.718;19.446;2022-12-07T16:01:47;14.80;;;8.50;;
70970;SDS011;58632;51.718;19.446;2022-12-07T16:04:13;14.00;;;8.90;;
70970;SDS011;58632;51.718;19.446;2022-12-07T16:06:39;15.00;;;9.20;;
70970;SDS011;58632;51.718;19.446;2022-12-07T16:09:05;13.30;;;8.80;;
70970;SDS011;58632;51.718;19.446;2022-12-07T16:11:30;15.20;;;9.30;;
70970;SDS011;58632;51.718;19.446;2022-12-07T16:13:56;13.10;;;8.40;;
70970;SDS011;58632;51.718;19.446;2022-12-07T16:16:22;16.00;;;9.00;;
70970;SDS011;58632;51.718;19.446;2022-12-07T16:18:49;15.50;;;9.20;;
70970;SDS011;58632;51.718;19.446;2022-12-07T16:21:15;12.40;;;7.30;;
70970;SDS011;58632;51.718;19.446;2022-12-07T16:23:42;14.40;;;9.80;;
70970;SDS011;58632;51.718;19.446;2022-12-07T16:26:10;15.70;;;10.40;;
70970;SDS011;58632;51.718;19.446;2022-12-07T16:28:38;16.40;;;9.70;;
70970;SDS011;58632;51.718;19.446;2022-12-07T16:31:04;16.40;;;10.30;;
70970;SDS011;58632;51.718;19.446;2022-12-07T16:33:35;14.80;;;9.40;;
70970;SDS011;58632;51.718;19.446;2022-12-07T16:36:03;14.80;;;9.00;;
70970;SDS011;58632;51.718;19.446;2022-12-07T16:38:30;15.20;;;10.10;;
70970;SDS011;58632;51.718;19.446;2022-12-07T16:40:56;14.90;;;9.90;;
70970;SDS011;58632;51.718;19.446;2022-12-07T16:43:22;16.30;;;10.80;;
70970;SDS011;58632;51.718;19.446;2022-12-07T16:45:48;16.90;;;11.30;;
70970;SDS011;58632;51.718;19.446;2022-12-07T16:48:14;15.50;;;10.10;;
70970;SDS011;58632;51.718;19.446;2022-12-07T16:50:40;14.20;;;9.40;;
70970;SDS011;58632;51.718;19.446;2022-12-07T16:53:08;16.30;;;9.70;;
70970;SDS011;58632;51.718;19.446;2022-12-07T16:55:40;13.30;;;9.00;;
70970;SDS011;58632;51.718;19.446;2022-12-07T16:58:08;13.50;;;9.70;;
70970;SDS011;58632;51.718;19.446;2022-12-07T17:00:34;11.70;;;8.50;;
70970;SDS011;58632;51.718;19.446;2022-12-07T17:03:00;10.80;;;7.30;;
70970;SDS011;58632;51.718;19.446;2022-12-07T17:05:26;11.70;;;7.90;;
70970;SDS011;58632;51.718;19.446;2022-12-07T17:07:54;11.50;;;8.00;;
70970;SDS011;58632;51.718;19.446;2022-12-07T17:10:20;14.40;;;8.30;;
70970;SDS011;58632;51.718;19.446;2022-12-07T17:12:47;12.70;;;8.80;;
70970;SDS011;58632;51.718;19.446;2022-12-07T17:15:13;14.60;;;8.50;;
70970;SDS011;58632;51.718;19.446;2022-12-07T17:17:45;15.40;;;9.20;;
70970;SDS011;58632;51.718;19.446;2022-12-07T17:20:19;13.20;;;8.20;;
70970;SDS011;58632;51.718;19.446;2022-12-07T17:22:47;13.90;;;9.60;;
70970;SDS011;58632;51.718;19.446;2022-12-07T17:25:12;14.10;;;8.60;;
70970;SDS011;58632;51.718;19.446;2022-12-07T17:27:38;12.30;;;7.60;;
70970;SDS011;58632;51.718;19.446;2022-12-07T17:30:05;12.70;;;8.80;;
70970;SDS011;58632;51.718;19.446;2022-12-07T17:32:32;13.20;;;9.20;;
70970;SDS011;58632;51.718;19.446;2022-12-07T17:34:57;11.70;;;8.90;;
70970;SDS011;58632;51.718;19.446;2022-12-07T17:39:51;11.10;;;6.30;;
70970;SDS011;58632;51.718;19.446;2022-12-07T17:42:17;8.90;;;5.70;;
70970;SDS011;58632;51.718;19.446;2022-12-07T17:45:02;10.20;;;6.20;;
70970;SDS011;58632;51.718;19.446;2022-12-07T17:47:29;8.70;;;5.50;;
70970;SDS011;58632;51.718;19.446;2022-12-07T17:49:55;9.10;;;5.40;;
70970;SDS011;58632;51.718;19.446;2022-12-07T17:52:21;7.80;;;5.20;;
70970;SDS011;58632;51.718;19.446;2022-12-07T17:55:06;7.00;;;4.30;;
70970;SDS011;58632;51.718;19.446;2022-12-07T17:57:32;7.70;;;4.40;;
70970;SDS011;58632;51.718;19.446;2022-12-07T17:59:58;6.50;;;4.50;;
70970;SDS011;58632;51.718;19.446;2022-12-07T18:02:24;6.00;;;3.70;;
70970;SDS011;58632;51.718;19.446;2022-12-07T18:04:50;6.70;;;4.20;;
70970;SDS011;58632;51.718;19.446;2022-12-07T18:07:17;8.10;;;4.40;;
70970;SDS011;58632;51.718;19.446;2022-12-07T18:09:43;8.00;;;4.70;;
70970;SDS011;58632;51.718;19.446;2022-12-07T18:12:09;6.40;;;4.40;;
70970;SDS011;58632;51.718;19.446;2022-12-07T18:14:35;6.80;;;4.80;;
70970;SDS011;58632;51.718;19.446;2022-12-07T18:17:01;6.70;;;4.40;;
70970;SDS011;58632;51.718;19.446;2022-12-07T18:19:26;6.10;;;3.30;;
70970;SDS011;58632;51.718;19.446;2022-12-07T18:21:52;6.40;;;4.00;;
70970;SDS011;58632;51.718;19.446;2022-12-07T18:24:19;5.60;;;3.80;;
70970;SDS011;58632;51.718;19.446;2022-12-07T18:26:44;5.70;;;3.60;;
70970;SDS011;58632;51.718;19.446;2022-12-07T18:29:16;4.70;;;3.30;;
70970;SDS011;58632;51.718;19.446;2022-12-07T18:31:43;5.50;;;3.40;;
70970;SDS011;58632;51.718;19.446;2022-12-07T18:34:11;5.20;;;3.20;;
70970;SDS011;58632;51.718;19.446;2022-12-07T18:36:39;5.90;;;3.60;;
70970;SDS011;58632;51.718;19.446;2022-12-07T18:39:07;7.50;;;4.40;;
70970;SDS011;58632;51.718;19.446;2022-12-07T18:41:33;5.40;;;3.40;;
70970;SDS011;58632;51.718;19.446;2022-12-07T18:44:02;5.90;;;3.50;;
70970;SDS011;58632;51.718;19.446;2022-12-07T18:46:29;7.50;;;4.50;;
70970;SDS011;58632;51.718;19.446;2022-12-07T18:48:55;7.90;;;4.80;;
70970;SDS011;58632;51.718;19.446;2022-12-07T18:51:25;9.50;;;5.00;;
70970;SDS011;58632;51.718;19.446;2022-12-07T18:53:54;8.60;;;5.70;;
70970;SDS011;58632;51.718;19.446;2022-12-07T18:56:22;9.90;;;6.10;;
70970;SDS011;58632;51.718;19.446;2022-12-07T18:58:50;9.90;;;6.60;;
70970;SDS011;58632;51.718;19.446;2022-12-07T19:01:45;12.70;;;7.60;;
70970;SDS011;58632;51.718;19.446;2022-12-07T19:04:12;11.70;;;8.30;;
70970;SDS011;58632;51.718;19.446;2022-12-07T19:06:42;11.70;;;7.70;;
70970;SDS011;58632;51.718;19.446;2022-12-07T19:09:08;10.80;;;6.00;;
70970;SDS011;58632;51.718;19.446;2022-12-07T19:11:34;12.50;;;7.70;;
70970;SDS011;58632;51.718;19.446;2022-12-07T19:16:53;10.20;;;6.40;;
70970;SDS011;58632;51.718;19.446;2022-12-07T19:19:22;14.00;;;8.20;;
70970;SDS011;58632;51.718;19.446;2022-12-07T19:21:53;10.10;;;5.90;;
70970;SDS011;58632;51.718;19.446;2022-12-07T19:24:18;17.00;;;11.20;;
70970;SDS011;58632;51.718;19.446;2022-12-07T19:26:44;14.40;;;8.80;;
70970;SDS011;58632;51.718;19.446;2022-12-07T19:29:10;13.10;;;7.30;;
70970;SDS011;58632;51.718;19.446;2022-12-07T19:31:36;14.40;;;8.60;;
70970;SDS011;58632;51.718;19.446;2022-12-07T19:34:12;17.00;;;8.80;;
70970;SDS011;58632;51.718;19.446;2022-12-07T19:36:40;16.20;;;9.30;;
70970;SDS011;58632;51.718;19.446;2022-12-07T19:39:06;22.60;;;11.70;;
70970;SDS011;58632;51.718;19.446;2022-12-07T19:41:32;20.30;;;11.00;;
70970;SDS011;58632;51.718;19.446;2022-12-07T19:43:59;17.10;;;9.00;;
70970;SDS011;58632;51.718;19.446;2022-12-07T19:46:26;16.10;;;8.40;;
70970;SDS011;58632;51.718;19.446;2022-12-07T19:48:52;23.50;;;11.90;;
70970;SDS011;58632;51.718;19.446;2022-12-07T19:51:17;25.10;;;14.20;;
70970;SDS011;58632;51.718;19.446;2022-12-07T19:53:43;23.90;;;15.20;;
70970;SDS011;58632;51.718;19.446;2022-12-07T19:56:16;24.80;;;16.40;;
70970;SDS011;58632;51.718;19.446;2022-12-07T19:58:44;23.80;;;13.70;;
70970;SDS011;58632;51.718;19.446;2022-12-07T20:01:10;25.60;;;14.90;;
70970;SDS011;58632;51.718;19.446;2022-12-07T20:03:35;20.70;;;12.70;;
70970;SDS011;58632;51.718;19.446;2022-12-07T20:06:06;25.20;;;16.80;;
70970;SDS011;58632;51.718;19.446;2022-12-07T20:08:37;24.00;;;15.50;;
70970;SDS011;58632;51.718;19.446;2022-12-07T20:11:03;23.50;;;13.70;;
70970;SDS011;58632;51.718;19.446;2022-12-07T20:13:47;22.30;;;14.80;;
70970;SDS011;58632;51.718;19.446;2022-12-07T20:16:13;22.80;;;13.70;;
70970;SDS011;58632;51.718;19.446;2022-12-07T20:18:39;21.40;;;13.80;;
70970;SDS011;58632;51.718;19.446;2022-12-07T20:21:05;18.00;;;11.40;;
70970;SDS011;58632;51.718;19.446;2022-12-07T20:23:31;20.40;;;12.10;;
70970;SDS011;58632;51.718;19.446;2022-12-07T20:26:00;21.10;;;13.40;;
70970;SDS011;58632;51.718;19.446;2022-12-07T20:28:27;21.70;;;12.80;;
70970;SDS011;58632;51.718;19.446;2022-12-07T20:30:54;17.70;;;11.10;;
70970;SDS011;58632;51.718;19.446;2022-12-07T20:33:20;18.00;;;11.70;;
70970;SDS011;58632;51.718;19.446;2022-12-07T20:35:46;22.80;;;11.30;;
70970;SDS011;58632;51.718;19.446;2022-12-07T20:38:13;20.20;;;10.50;;
70970;SDS011;58632;51.718;19.446;2022-12-07T20:40:44;17.20;;;9.20;;
70970;SDS011;58632;51.718;19.446;2022-12-07T20:43:12;16.30;;;9.20;;
70970;SDS011;58632;51.718;19.446;2022-12-07T20:45:44;18.20;;;9.60;;
70970;SDS011;58632;51.718;19.446;2022-12-07T20:48:10;16.80;;;9.40;;
70970;SDS011;58632;51.718;19.446;2022-12-07T20:50:36;18.00;;;9.40;;
70970;SDS011;58632;51.718;19.446;2022-12-07T20:53:02;17.00;;;8.70;;
70970;SDS011;58632;51.718;19.446;2022-12-07T20:55:28;18.00;;;9.70;;
70970;SDS011;58632;51.718;19.446;2022-12-07T20:57:54;14.20;;;9.10;;
70970;SDS011;58632;51.718;19.446;2022-12-07T21:00:20;19.10;;;9.00;;
70970;SDS011;58632;51.718;19.446;2022-12-07T21:02:46;15.60;;;9.70;;
70970;SDS011;58632;51.718;19.446;2022-12-07T21:05:12;18.00;;;10.90;;
70970;SDS011;58632;51.718;19.446;2022-12-07T21:07:38;16.30;;;9.60;;
70970;SDS011;58632;51.718;19.446;2022-12-07T21:10:04;18.70;;;9.30;;
70970;SDS011;58632;51.718;19.446;2022-12-07T21:12:30;16.00;;;9.30;;
70970;SDS011;58632;51.718;19.446;2022-12-07T21:14:56;15.60;;;9.40;;
70970;SDS011;58632;51.718;19.446;2022-12-07T21:17:22;18.70;;;9.80;;
70970;SDS011;58632;51.718;19.446;2022-12-07T21:19:48;15.10;;;9.50;;
70970;SDS011;58632;51.718;19.446;2022-12-07T21:22:13;15.60;;;10.20;;
70970;SDS011;58632;51.718;19.446;2022-12-07T21:24:39;17.40;;;9.70;;
70970;SDS011;58632;51.718;19.446;2022-12-07T21:27:06;18.20;;;9.80;;
70970;SDS011;58632;51.718;19.446;2022-12-07T21:29:32;16.50;;;8.80;;
70970;SDS011;58632;51.718;19.446;2022-12-07T21:31:58;14.60;;;8.40;;
70970;SDS011;58632;51.718;19.446;2022-12-07T21:34:24;14.90;;;9.80;;
70970;SDS011;58632;51.718;19.446;2022-12-07T21:36:50;19.30;;;11.00;;
70970;SDS011;58632;51.718;19.446;2022-12-07T21:39:15;16.80;;;10.20;;
70970;SDS011;58632;51.718;19.446;2022-12-07T21:41:42;17.10;;;10.80;;
70970;SDS011;58632;51.718;19.446;2022-12-07T21:44:08;20.80;;;11.60;;
70970;SDS011;58632;51.718;19.446;2022-12-07T21:46:34;19.40;;;11.10;;
70970;SDS011;58632;51.718;19.446;2022-12-07T21:49:04;17.50;;;11.70;;
70970;SDS011;58632;51.718;19.446;2022-12-07T21:51:38;17.10;;;10.30;;
70970;SDS011;58632;51.718;19.446;2022-12-07T21:54:05;16.90;;;11.50;;
70970;SDS011;58632;51.718;19.446;2022-12-07T21:56:32;18.00;;;10.70;;
70970;SDS011;58632;51.718;19.446;2022-12-07T21:59:07;17.10;;;10.40;;
70970;SDS011;58632;51.718;19.446;2022-12-07T22:01:37;17.20;;;10.40;;
70970;SDS011;58632;51.718;19.446;2022-12-07T22:04:08;16.90;;;10.90;;
70970;SDS011;58632;51.718;19.446;2022-12-07T22:06:36;17.00;;;10.30;;
70970;SDS011;58632;51.718;19.446;2022-12-07T22:09:02;18.70;;;10.60;;
70970;SDS011;58632;51.718;19.446;2022-12-07T22:11:29;16.00;;;9.80;;
70970;SDS011;58632;51.718;19.446;2022-12-07T22:13:54;19.50;;;9.80;;
70970;SDS011;58632;51.718;19.446;2022-12-07T22:16:39;15.30;;;10.10;;
70970;SDS011;58632;51.718;19.446;2022-12-07T22:19:05;15.30;;;10.00;;
70970;SDS011;58632;51.718;19.446;2022-12-07T22:21:32;17.30;;;9.80;;
70970;SDS011;58632;51.718;19.446;2022-12-07T22:23:58;16.00;;;9.70;;
70970;SDS011;58632;51.718;19.446;2022-12-07T22:26:24;15.00;;;9.40;;
70970;SDS011;58632;51.718;19.446;2022-12-07T22:28:50;16.40;;;9.20;;
70970;SDS011;58632;51.718;19.446;2022-12-07T22:31:16;17.50;;;10.70;;
70970;SDS011;58632;51.718;19.446;2022-12-07T22:36:09;18.40;;;9.60;;
70970;SDS011;58632;51.718;19.446;2022-12-07T22:38:36;21.30;;;13.60;;
70970;SDS011;58632;51.718;19.446;2022-12-07T22:41:19;19.90;;;10.90;;
70970;SDS011;58632;51.718;19.446;2022-12-07T22:43:51;15.70;;;9.60;;
70970;SDS011;58632;51.718;19.446;2022-12-07T22:46:17;22.60;;;12.10;;
70970;SDS011;58632;51.718;19.446;2022-12-07T22:48:43;14.60;;;10.40;;
70970;SDS011;58632;51.718;19.446;2022-12-07T22:53:54;14.50;;;9.30;;
70970;SDS011;58632;51.718;19.446;2022-12-07T22:56:21;13.20;;;8.20;;
70970;SDS011;58632;51.718;19.446;2022-12-07T22:58:47;15.80;;;8.10;;
70970;SDS011;58632;51.718;19.446;2022-12-07T23:01:14;13.60;;;8.70;;
70970;SDS011;58632;51.718;19.446;2022-12-07T23:03:41;12.50;;;8.40;;
70970;SDS011;58632;51.718;19.446;2022-12-07T23:06:17;11.00;;;8.30;;
70970;SDS011;58632;51.718;19.446;2022-12-07T23:08:48;11.80;;;7.60;;
70970;SDS011;58632;51.718;19.446;2022-12-07T23:11:16;13.20;;;8.30;;
70970;SDS011;58632;51.718;19.446;2022-12-07T23:14:02;13.20;;;8.20;;
70970;SDS011;58632;51.718;19.446;2022-12-07T23:16:28;13.70;;;9.30;;
70970;SDS011;58632;51.718;19.446;2022-12-07T23:18:54;15.00;;;10.00;;
70970;SDS011;58632;51.718;19.446;2022-12-07T23:21:20;13.40;;;8.30;;
70970;SDS011;58632;51.718;19.446;2022-12-07T23:23:46;11.90;;;7.90;;
70970;SDS011;58632;51.718;19.446;2022-12-07T23:26:12;13.60;;;8.50;;
70970;SDS011;58632;51.718;19.446;2022-12-07T23:28:38;15.00;;;8.40;;
70970;SDS011;58632;51.718;19.446;2022-12-07T23:31:05;15.70;;;8.60;;
70970;SDS011;58632;51.718;19.446;2022-12-07T23:33:33;11.50;;;7.20;;
70970;SDS011;58632;51.718;19.446;2022-12-07T23:36:08;14.60;;;8.10;;
70970;SDS011;58632;51.718;19.446;2022-12-07T23:38:35;13.30;;;7.10;;
70970;SDS011;58632;51.718;19.446;2022-12-07T23:41:03;16.70;;;8.30;;
70970;SDS011;58632;51.718;19.446;2022-12-07T23:43:33;13.10;;;6.70;;
70970;SDS011;58632;51.718;19.446;2022-12-07T23:46:00;11.70;;;6.30;;
70970;SDS011;58632;51.718;19.446;2022-12-07T23:48:26;9.40;;;5.90;;
70970;SDS011;58632;51.718;19.446;2022-12-07T23:50:55;10.50;;;7.00;;
70970;SDS011;58632;51.718;19.446;2022-12-07T23:53:22;13.80;;;7.00;;
70970;SDS011;58632;51.718;19.446;2022-12-07T23:55:49;11.40;;;6.40;;
70970;SDS011;58632;51.718;19.446;2022-12-07T23:58:15;11.90;;;5.60;;
